Orbital elements of FENGYUN 1C DEB
| Launched | 9 May 1999 |
| Flight ended | – |
| Launch site | Taiyuan Space Center, PRC |
| Owner | People's Republic of China |
| NORAD ID | 36664 |
| Date fetched |
Epoch osculation |
Inc. [°] |
Ecc. | RA asc node [hr] |
Arg Peri. [°] |
Mean anom [°] |
Mean motion [rev/day] |
Abs. mag |
| Date fetched |
Epoch osculation |
Inc. [°] |
Ecc. | RA asc node [hr] |
Arg Peri. [°] |
Mean anom [°] |
Mean motion [rev/day] |
Abs. mag |
| 2026 May 08 17:57 | 2026 May 04 07:03:56 | 98.5890 | 0.01732 | 9.9660 | 49.1276 | 312.4764 | 14.18028 | – |
| 2026 May 07 17:58 | 2026 May 04 07:03:56 | 98.5890 | 0.01732 | 9.9660 | 49.1276 | 312.4764 | 14.18028 | – |
| 2026 May 06 17:57 | 2026 May 04 07:03:56 | 98.5890 | 0.01732 | 9.9660 | 49.1276 | 312.4764 | 14.18028 | – |
| 2026 May 05 17:57 | 2026 May 04 07:03:56 | 98.5890 | 0.01732 | 9.9660 | 49.1276 | 312.4764 | 14.18028 | – |
| 2026 May 04 17:57 | 2026 Apr 30 08:14:01 | 98.5894 | 0.01734 | 9.7109 | 60.4564 | 312.4764 | 14.18028 | – |
| 2026 May 03 17:57 | 2026 Apr 30 08:14:01 | 98.5894 | 0.01734 | 9.7109 | 60.4564 | 312.4764 | 14.18028 | – |
| 2026 May 02 17:57 | 2026 Apr 30 08:14:01 | 98.5894 | 0.01734 | 9.7109 | 60.4564 | 312.4764 | 14.18028 | – |
| 2026 May 01 17:56 | 2026 Apr 30 08:14:01 | 98.5894 | 0.01734 | 9.7109 | 60.4564 | 312.4764 | 14.18028 | – |
| 2026 Apr 30 17:56 | 2026 Apr 30 08:14:01 | 98.5894 | 0.01734 | 9.7109 | 60.4564 | 312.4764 | 14.18028 | – |
| 2026 Apr 29 17:57 | 2026 Apr 24 08:17:28 | 98.5902 | 0.01735 | 9.3238 | 77.6417 | 312.4764 | 14.18028 | – |
| 2026 Apr 28 17:56 | 2026 Apr 24 08:17:28 | 98.5902 | 0.01735 | 9.3238 | 77.6417 | 312.4764 | 14.18028 | – |
| 2026 Apr 27 17:58 | 2026 Apr 24 08:17:28 | 98.5902 | 0.01735 | 9.3238 | 77.6417 | 312.4764 | 14.18028 | – |
| 2026 Apr 26 17:58 | 2026 Apr 24 08:17:28 | 98.5902 | 0.01735 | 9.3238 | 77.6417 | 312.4764 | 14.18028 | – |
| 2026 Apr 25 17:58 | 2026 Apr 24 08:17:28 | 98.5902 | 0.01735 | 9.3238 | 77.6417 | 312.4764 | 14.18028 | – |
| 2026 Apr 24 17:59 | 2026 Apr 24 08:17:28 | 98.5902 | 0.01735 | 9.3238 | 77.6417 | 312.4764 | 14.18028 | – |
| 2026 Apr 23 17:57 | 2026 Apr 18 08:20:52 | 98.5912 | 0.01736 | 8.9366 | 94.8088 | 312.4764 | 14.18028 | – |
| 2026 Apr 22 17:57 | 2026 Apr 18 08:20:52 | 98.5912 | 0.01736 | 8.9366 | 94.8088 | 312.4764 | 14.18028 | – |
| 2026 Apr 21 17:57 | 2026 Apr 18 08:20:52 | 98.5912 | 0.01736 | 8.9366 | 94.8088 | 312.4764 | 14.18028 | – |
| 2026 Apr 20 17:57 | 2026 Apr 18 08:20:52 | 98.5912 | 0.01736 | 8.9366 | 94.8088 | 312.4764 | 14.18028 | – |
| 2026 Apr 19 17:58 | 2026 Apr 18 08:20:52 | 98.5912 | 0.01736 | 8.9366 | 94.8088 | 312.4764 | 14.18028 | – |
| 2026 Apr 18 17:56 | 2026 Apr 11 18:51:20 | 98.5921 | 0.01735 | 8.5128 | 113.6071 | 312.4764 | 14.18028 | – |
| 2026 Apr 16 17:57 | 2026 Apr 11 18:51:20 | 98.5921 | 0.01735 | 8.5128 | 113.6071 | 312.4764 | 14.18028 | – |
| 2026 Apr 14 17:57 | 2026 Apr 11 18:51:20 | 98.5921 | 0.01735 | 8.5128 | 113.6071 | 312.4764 | 14.18028 | – |
| 2026 Apr 13 17:57 | 2026 Apr 11 18:51:20 | 98.5921 | 0.01735 | 8.5128 | 113.6071 | 312.4764 | 14.18028 | – |
| 2026 Apr 12 17:57 | 2026 Apr 07 08:10:00 | 98.5931 | 0.01734 | 8.2258 | 126.3665 | 312.4764 | 14.18028 | – |
| 2026 Apr 11 17:57 | 2026 Apr 07 08:10:00 | 98.5931 | 0.01734 | 8.2258 | 126.3665 | 312.4764 | 14.18028 | – |